Abbey Dell, Indiana
Current Conditions -  °F | °C
As of 12:55 PM on Saturday 25 Oct 2014 (Local Time) from KDCY Reporting Station
Clear Clear  
Wind Chill: 70°   Ceiling: Unl
Heat Index: 70°   Visibility: 10mi
Dew Point: 60°   Wind: 6mph
Humidity: 70%   Direction: 260°W
Pressure: 30"   Gusts: NA
Location:  38.6165°N, 86.6265°W
Report Text: KDCY 251655Z AUTO 26005KT 10SM CLR 21/15 A3000 RMK AO2 T02100153
Loading
Personal Weather Stations






























Interactive Weather Map New forecast layout! Learn more

10-Day Weather Forecast

Advertisements
Track Severe Weather on mobile